sensor_id;sensor_type;location;lat;lon;timestamp;P1;durP1;ratioP1;P2;durP2;ratioP2
44145;SDS011;29809;52.432;4.780;2022-11-15T00:00:00;9.57;;;8.68;;
44145;SDS011;29809;52.432;4.780;2022-11-15T00:02:26;8.85;;;7.95;;
44145;SDS011;29809;52.432;4.780;2022-11-15T00:04:51;9.40;;;8.50;;
44145;SDS011;29809;52.432;4.780;2022-11-15T00:07:16;9.73;;;8.73;;
44145;SDS011;29809;52.432;4.780;2022-11-15T00:09:41;9.40;;;8.52;;
44145;SDS011;29809;52.432;4.780;2022-11-15T00:12:07;10.50;;;9.40;;
44145;SDS011;29809;52.432;4.780;2022-11-15T00:14:32;9.77;;;8.80;;
44145;SDS011;29809;52.432;4.780;2022-11-15T00:16:57;10.45;;;9.18;;
44145;SDS011;29809;52.432;4.780;2022-11-15T00:19:22;9.30;;;8.05;;
44145;SDS011;29809;52.432;4.780;2022-11-15T00:21:47;9.38;;;8.43;;
44145;SDS011;29809;52.432;4.780;2022-11-15T00:24:13;9.88;;;8.88;;
44145;SDS011;29809;52.432;4.780;2022-11-15T00:26:38;10.52;;;8.73;;
44145;SDS011;29809;52.432;4.780;2022-11-15T00:29:03;10.23;;;9.20;;
44145;SDS011;29809;52.432;4.780;2022-11-15T00:31:28;11.07;;;9.30;;
44145;SDS011;29809;52.432;4.780;2022-11-15T00:33:54;9.02;;;8.07;;
44145;SDS011;29809;52.432;4.780;2022-11-15T00:36:19;10.35;;;9.32;;
44145;SDS011;29809;52.432;4.780;2022-11-15T00:38:44;10.40;;;9.40;;
44145;SDS011;29809;52.432;4.780;2022-11-15T00:41:09;10.82;;;9.73;;
44145;SDS011;29809;52.432;4.780;2022-11-15T00:43:35;10.30;;;8.55;;
44145;SDS011;29809;52.432;4.780;2022-11-15T00:46:00;11.18;;;9.30;;
44145;SDS011;29809;52.432;4.780;2022-11-15T00:48:27;10.93;;;8.90;;
44145;SDS011;29809;52.432;4.780;2022-11-15T00:50:52;10.48;;;8.48;;
44145;SDS011;29809;52.432;4.780;2022-11-15T00:53:18;10.52;;;8.70;;
44145;SDS011;29809;52.432;4.780;2022-11-15T00:55:43;12.30;;;9.30;;
44145;SDS011;29809;52.432;4.780;2022-11-15T00:58:08;10.23;;;9.15;;
44145;SDS011;29809;52.432;4.780;2022-11-15T01:00:33;11.43;;;9.55;;
44145;SDS011;29809;52.432;4.780;2022-11-15T01:03:02;10.82;;;9.73;;
44145;SDS011;29809;52.432;4.780;2022-11-15T01:05:27;11.23;;;10.07;;
44145;SDS011;29809;52.432;4.780;2022-11-15T01:07:53;11.00;;;9.73;;
44145;SDS011;29809;52.432;4.780;2022-11-15T01:10:19;11.65;;;9.63;;
44145;SDS011;29809;52.432;4.780;2022-11-15T01:12:44;10.45;;;9.35;;
44145;SDS011;29809;52.432;4.780;2022-11-15T01:15:10;10.40;;;9.23;;
44145;SDS011;29809;52.432;4.780;2022-11-15T01:17:35;10.45;;;9.38;;
44145;SDS011;29809;52.432;4.780;2022-11-15T01:20:00;12.32;;;10.07;;
44145;SDS011;29809;52.432;4.780;2022-11-15T01:22:25;13.32;;;9.82;;
44145;SDS011;29809;52.432;4.780;2022-11-15T01:24:50;11.35;;;9.65;;
44145;SDS011;29809;52.432;4.780;2022-11-15T01:27:16;13.45;;;9.70;;
44145;SDS011;29809;52.432;4.780;2022-11-15T01:29:41;9.98;;;8.95;;
44145;SDS011;29809;52.432;4.780;2022-11-15T01:32:07;11.07;;;9.43;;
44145;SDS011;29809;52.432;4.780;2022-11-15T01:34:32;10.65;;;8.77;;
44145;SDS011;29809;52.432;4.780;2022-11-15T01:36:57;10.43;;;9.32;;
44145;SDS011;29809;52.432;4.780;2022-11-15T01:39:22;11.13;;;9.93;;
44145;SDS011;29809;52.432;4.780;2022-11-15T01:41:48;10.77;;;9.40;;
44145;SDS011;29809;52.432;4.780;2022-11-15T01:46:53;11.88;;;9.82;;
44145;SDS011;29809;52.432;4.780;2022-11-15T01:49:19;10.35;;;9.30;;
44145;SDS011;29809;52.432;4.780;2022-11-15T01:51:45;11.02;;;9.18;;
44145;SDS011;29809;52.432;4.780;2022-11-15T01:54:11;10.95;;;8.95;;
44145;SDS011;29809;52.432;4.780;2022-11-15T01:56:41;11.57;;;9.50;;
44145;SDS011;29809;52.432;4.780;2022-11-15T01:59:08;10.63;;;9.52;;
44145;SDS011;29809;52.432;4.780;2022-11-15T02:01:34;10.35;;;9.18;;
44145;SDS011;29809;52.432;4.780;2022-11-15T02:04:13;10.68;;;9.57;;
44145;SDS011;29809;52.432;4.780;2022-11-15T02:06:41;10.73;;;9.23;;
44145;SDS011;29809;52.432;4.780;2022-11-15T02:09:07;10.27;;;9.18;;
44145;SDS011;29809;52.432;4.780;2022-11-15T02:11:32;10.05;;;8.90;;
44145;SDS011;29809;52.432;4.780;2022-11-15T02:13:58;9.77;;;8.65;;
44145;SDS011;29809;52.432;4.780;2022-11-15T02:18:55;12.63;;;9.60;;
44145;SDS011;29809;52.432;4.780;2022-11-15T02:24:07;9.80;;;8.80;;
44145;SDS011;29809;52.432;4.780;2022-11-15T02:39:34;10.70;;;8.63;;
44145;SDS011;29809;52.432;4.780;2022-11-15T02:42:07;12.00;;;8.98;;
44145;SDS011;29809;52.432;4.780;2022-11-15T02:44:53;10.45;;;8.75;;
44145;SDS011;29809;52.432;4.780;2022-11-15T02:47:20;9.70;;;8.70;;
44145;SDS011;29809;52.432;4.780;2022-11-15T02:49:49;11.93;;;9.48;;
44145;SDS011;29809;52.432;4.780;2022-11-15T02:52:16;10.38;;;9.27;;
44145;SDS011;29809;52.432;4.780;2022-11-15T02:54:41;10.80;;;9.45;;
44145;SDS011;29809;52.432;4.780;2022-11-15T02:57:07;10.13;;;9.00;;
44145;SDS011;29809;52.432;4.780;2022-11-15T03:04:55;11.30;;;9.35;;
44145;SDS011;29809;52.432;4.780;2022-11-15T03:09:54;11.90;;;9.73;;
44145;SDS011;29809;52.432;4.780;2022-11-15T03:12:33;11.63;;;9.13;;
44145;SDS011;29809;52.432;4.780;2022-11-15T03:15:09;10.80;;;9.52;;
44145;SDS011;29809;52.432;4.780;2022-11-15T03:17:38;11.05;;;9.05;;
44145;SDS011;29809;52.432;4.780;2022-11-15T03:20:05;10.75;;;9.02;;
44145;SDS011;29809;52.432;4.780;2022-11-15T03:22:33;12.15;;;9.85;;
44145;SDS011;29809;52.432;4.780;2022-11-15T03:25:00;12.07;;;9.60;;
44145;SDS011;29809;52.432;4.780;2022-11-15T03:27:28;12.18;;;10.13;;
44145;SDS011;29809;52.432;4.780;2022-11-15T03:30:02;12.25;;;9.32;;
44145;SDS011;29809;52.432;4.780;2022-11-15T03:32:29;14.75;;;11.02;;
44145;SDS011;29809;52.432;4.780;2022-11-15T03:34:57;10.63;;;9.02;;
44145;SDS011;29809;52.432;4.780;2022-11-15T03:37:24;10.80;;;9.10;;
44145;SDS011;29809;52.432;4.780;2022-11-15T03:39:52;11.77;;;9.57;;
44145;SDS011;29809;52.432;4.780;2022-11-15T03:42:20;11.43;;;9.70;;
44145;SDS011;29809;52.432;4.780;2022-11-15T03:47:23;11.40;;;9.82;;
44145;SDS011;29809;52.432;4.780;2022-11-15T03:49:51;11.75;;;10.27;;
44145;SDS011;29809;52.432;4.780;2022-11-15T03:52:17;12.32;;;9.68;;
44145;SDS011;29809;52.432;4.780;2022-11-15T03:55:05;12.68;;;9.88;;
44145;SDS011;29809;52.432;4.780;2022-11-15T03:57:29;11.55;;;10.00;;
44145;SDS011;29809;52.432;4.780;2022-11-15T03:59:54;10.75;;;9.27;;
44145;SDS011;29809;52.432;4.780;2022-11-15T04:02:19;11.75;;;10.00;;
44145;SDS011;29809;52.432;4.780;2022-11-15T04:04:44;12.85;;;10.60;;
44145;SDS011;29809;52.432;4.780;2022-11-15T04:07:10;12.93;;;10.32;;
44145;SDS011;29809;52.432;4.780;2022-11-15T04:09:35;11.57;;;9.68;;
44145;SDS011;29809;52.432;4.780;2022-11-15T04:12:20;11.00;;;9.90;;
44145;SDS011;29809;52.432;4.780;2022-11-15T04:15:02;10.52;;;9.32;;
44145;SDS011;29809;52.432;4.780;2022-11-15T04:20:06;12.73;;;10.05;;
44145;SDS011;29809;52.432;4.780;2022-11-15T04:22:52;11.80;;;9.82;;
44145;SDS011;29809;52.432;4.780;2022-11-15T04:25:36;11.50;;;9.65;;
44145;SDS011;29809;52.432;4.780;2022-11-15T04:28:01;12.80;;;10.10;;
44145;SDS011;29809;52.432;4.780;2022-11-15T04:30:26;13.65;;;11.00;;
44145;SDS011;29809;52.432;4.780;2022-11-15T04:32:51;13.43;;;10.45;;
44145;SDS011;29809;52.432;4.780;2022-11-15T04:35:17;12.77;;;9.65;;
44145;SDS011;29809;52.432;4.780;2022-11-15T04:37:42;12.52;;;10.68;;
44145;SDS011;29809;52.432;4.780;2022-11-15T04:40:07;11.30;;;9.73;;
44145;SDS011;29809;52.432;4.780;2022-11-15T04:42:33;11.35;;;9.45;;
44145;SDS011;29809;52.432;4.780;2022-11-15T04:44:58;11.10;;;9.98;;
44145;SDS011;29809;52.432;4.780;2022-11-15T04:47:23;12.25;;;9.85;;
44145;SDS011;29809;52.432;4.780;2022-11-15T04:49:48;11.95;;;9.70;;
44145;SDS011;29809;52.432;4.780;2022-11-15T04:52:13;11.25;;;9.40;;
44145;SDS011;29809;52.432;4.780;2022-11-15T04:54:39;10.35;;;9.27;;
44145;SDS011;29809;52.432;4.780;2022-11-15T04:57:04;10.93;;;9.02;;
44145;SDS011;29809;52.432;4.780;2022-11-15T04:59:29;11.63;;;9.88;;
44145;SDS011;29809;52.432;4.780;2022-11-15T05:01:54;10.27;;;9.18;;
44145;SDS011;29809;52.432;4.780;2022-11-15T05:04:19;11.23;;;9.05;;
44145;SDS011;29809;52.432;4.780;2022-11-15T05:06:48;9.95;;;8.95;;
44145;SDS011;29809;52.432;4.780;2022-11-15T05:09:14;11.13;;;9.50;;
44145;SDS011;29809;52.432;4.780;2022-11-15T05:11:40;10.18;;;9.05;;
44145;SDS011;29809;52.432;4.780;2022-11-15T05:14:05;11.00;;;9.90;;
44145;SDS011;29809;52.432;4.780;2022-11-15T05:16:30;10.48;;;9.07;;
44145;SDS011;29809;52.432;4.780;2022-11-15T05:18:55;11.02;;;9.68;;
44145;SDS011;29809;52.432;4.780;2022-11-15T05:21:21;9.02;;;7.97;;
44145;SDS011;29809;52.432;4.780;2022-11-15T05:23:46;9.80;;;8.48;;
44145;SDS011;29809;52.432;4.780;2022-11-15T05:26:12;10.48;;;9.07;;
44145;SDS011;29809;52.432;4.780;2022-11-15T05:28:37;10.23;;;9.10;;
44145;SDS011;29809;52.432;4.780;2022-11-15T05:31:03;9.90;;;8.70;;
44145;SDS011;29809;52.432;4.780;2022-11-15T05:33:29;9.32;;;8.30;;
44145;SDS011;29809;52.432;4.780;2022-11-15T05:36:17;9.27;;;8.27;;
44145;SDS011;29809;52.432;4.780;2022-11-15T05:38:39;11.18;;;8.43;;
44145;SDS011;29809;52.432;4.780;2022-11-15T05:41:04;10.10;;;8.82;;
44145;SDS011;29809;52.432;4.780;2022-11-15T05:43:31;9.35;;;7.70;;
44145;SDS011;29809;52.432;4.780;2022-11-15T05:45:58;10.77;;;8.00;;
44145;SDS011;29809;52.432;4.780;2022-11-15T05:48:24;10.15;;;7.13;;
44145;SDS011;29809;52.432;4.780;2022-11-15T05:50:50;8.55;;;7.35;;
44145;SDS011;29809;52.432;4.780;2022-11-15T05:53:16;18.38;;;8.70;;
44145;SDS011;29809;52.432;4.780;2022-11-15T05:55:42;153.52;;;51.28;;
44145;SDS011;29809;52.432;4.780;2022-11-15T05:58:08;116.95;;;38.08;;
44145;SDS011;29809;52.432;4.780;2022-11-15T06:00:33;121.82;;;41.50;;
44145;SDS011;29809;52.432;4.780;2022-11-15T06:02:58;104.18;;;38.15;;
44145;SDS011;29809;52.432;4.780;2022-11-15T06:05:23;112.72;;;36.75;;
44145;SDS011;29809;52.432;4.780;2022-11-15T06:07:49;91.97;;;33.38;;
44145;SDS011;29809;52.432;4.780;2022-11-15T06:10:14;86.03;;;30.85;;
44145;SDS011;29809;52.432;4.780;2022-11-15T06:12:39;82.72;;;31.48;;
44145;SDS011;29809;52.432;4.780;2022-11-15T06:15:05;72.93;;;29.35;;
44145;SDS011;29809;52.432;4.780;2022-11-15T06:17:30;76.38;;;29.38;;
44145;SDS011;29809;52.432;4.780;2022-11-15T06:19:55;65.97;;;27.40;;
44145;SDS011;29809;52.432;4.780;2022-11-15T06:22:21;57.30;;;27.10;;
44145;SDS011;29809;52.432;4.780;2022-11-15T06:24:47;57.58;;;26.58;;
44145;SDS011;29809;52.432;4.780;2022-11-15T06:27:13;50.55;;;24.83;;
44145;SDS011;29809;52.432;4.780;2022-11-15T06:29:38;51.42;;;23.33;;
44145;SDS011;29809;52.432;4.780;2022-11-15T06:32:03;52.65;;;23.95;;
44145;SDS011;29809;52.432;4.780;2022-11-15T06:34:29;50.80;;;21.88;;
44145;SDS011;29809;52.432;4.780;2022-11-15T06:36:54;49.88;;;22.10;;
44145;SDS011;29809;52.432;4.780;2022-11-15T06:39:19;46.92;;;20.75;;
44145;SDS011;29809;52.432;4.780;2022-11-15T06:41:45;47.80;;;20.48;;
44145;SDS011;29809;52.432;4.780;2022-11-15T06:44:10;40.05;;;18.65;;
44145;SDS011;29809;52.432;4.780;2022-11-15T06:46:35;39.55;;;17.75;;
44145;SDS011;29809;52.432;4.780;2022-11-15T06:49:00;33.22;;;16.55;;
44145;SDS011;29809;52.432;4.780;2022-11-15T06:51:26;33.78;;;16.30;;
44145;SDS011;29809;52.432;4.780;2022-11-15T06:53:51;35.13;;;16.98;;
44145;SDS011;29809;52.432;4.780;2022-11-15T06:56:16;29.35;;;16.00;;
44145;SDS011;29809;52.432;4.780;2022-11-15T06:58:41;38.33;;;14.45;;
44145;SDS011;29809;52.432;4.780;2022-11-15T07:01:08;28.33;;;14.95;;
44145;SDS011;29809;52.432;4.780;2022-11-15T07:03:37;31.45;;;14.73;;
44145;SDS011;29809;52.432;4.780;2022-11-15T07:06:02;31.60;;;13.75;;
44145;SDS011;29809;52.432;4.780;2022-11-15T07:08:28;22.75;;;11.90;;
44145;SDS011;29809;52.432;4.780;2022-11-15T07:10:54;26.30;;;12.60;;
44145;SDS011;29809;52.432;4.780;2022-11-15T07:13:19;25.90;;;11.98;;
44145;SDS011;29809;52.432;4.780;2022-11-15T07:15:44;20.48;;;11.73;;
44145;SDS011;29809;52.432;4.780;2022-11-15T07:18:10;22.58;;;12.13;;
44145;SDS011;29809;52.432;4.780;2022-11-15T07:20:35;21.92;;;11.90;;
44145;SDS011;29809;52.432;4.780;2022-11-15T07:23:01;18.52;;;10.65;;
44145;SDS011;29809;52.432;4.780;2022-11-15T07:25:26;17.77;;;9.68;;
44145;SDS011;29809;52.432;4.780;2022-11-15T07:27:55;17.25;;;10.40;;
44145;SDS011;29809;52.432;4.780;2022-11-15T07:30:21;19.42;;;9.98;;
44145;SDS011;29809;52.432;4.780;2022-11-15T07:32:46;15.00;;;9.80;;
44145;SDS011;29809;52.432;4.780;2022-11-15T07:35:11;14.75;;;9.15;;
44145;SDS011;29809;52.432;4.780;2022-11-15T07:37:37;17.58;;;9.48;;
44145;SDS011;29809;52.432;4.780;2022-11-15T07:40:02;14.52;;;8.55;;
44145;SDS011;29809;52.432;4.780;2022-11-15T07:42:27;14.27;;;8.25;;
44145;SDS011;29809;52.432;4.780;2022-11-15T07:45:11;15.85;;;8.85;;
44145;SDS011;29809;52.432;4.780;2022-11-15T07:47:36;14.30;;;7.97;;
44145;SDS011;29809;52.432;4.780;2022-11-15T07:50:01;14.57;;;7.85;;
44145;SDS011;29809;52.432;4.780;2022-11-15T07:52:27;12.15;;;8.07;;
44145;SDS011;29809;52.432;4.780;2022-11-15T07:54:52;11.07;;;7.43;;
44145;SDS011;29809;52.432;4.780;2022-11-15T07:57:17;12.50;;;6.93;;
44145;SDS011;29809;52.432;4.780;2022-11-15T07:59:42;11.30;;;7.78;;
44145;SDS011;29809;52.432;4.780;2022-11-15T08:02:08;11.88;;;7.13;;
44145;SDS011;29809;52.432;4.780;2022-11-15T08:04:33;11.05;;;6.85;;
44145;SDS011;29809;52.432;4.780;2022-11-15T08:06:59;11.35;;;7.47;;
44145;SDS011;29809;52.432;4.780;2022-11-15T08:09:24;9.60;;;6.75;;
44145;SDS011;29809;52.432;4.780;2022-11-15T08:11:49;8.65;;;6.22;;
44145;SDS011;29809;52.432;4.780;2022-11-15T08:14:15;11.05;;;6.32;;
44145;SDS011;29809;52.432;4.780;2022-11-15T08:16:40;9.45;;;6.22;;
44145;SDS011;29809;52.432;4.780;2022-11-15T08:19:05;7.25;;;5.07;;
44145;SDS011;29809;52.432;4.780;2022-11-15T08:21:30;10.23;;;5.93;;
44145;SDS011;29809;52.432;4.780;2022-11-15T08:23:56;8.10;;;5.50;;
44145;SDS011;29809;52.432;4.780;2022-11-15T08:26:21;6.72;;;4.82;;
44145;SDS011;29809;52.432;4.780;2022-11-15T08:28:46;7.15;;;5.25;;
44145;SDS011;29809;52.432;4.780;2022-11-15T08:31:15;7.80;;;4.97;;
44145;SDS011;29809;52.432;4.780;2022-11-15T08:33:41;9.40;;;5.45;;
44145;SDS011;29809;52.432;4.780;2022-11-15T08:36:10;8.65;;;4.95;;
44145;SDS011;29809;52.432;4.780;2022-11-15T08:38:36;7.25;;;4.50;;
44145;SDS011;29809;52.432;4.780;2022-11-15T08:41:02;5.60;;;4.63;;
44145;SDS011;29809;52.432;4.780;2022-11-15T08:43:28;6.25;;;4.32;;
44145;SDS011;29809;52.432;4.780;2022-11-15T08:45:55;10.30;;;4.82;;
44145;SDS011;29809;52.432;4.780;2022-11-15T08:48:20;7.15;;;5.05;;
44145;SDS011;29809;52.432;4.780;2022-11-15T08:50:46;9.13;;;4.60;;
44145;SDS011;29809;52.432;4.780;2022-11-15T08:53:12;5.85;;;4.40;;
44145;SDS011;29809;52.432;4.780;2022-11-15T08:55:37;6.75;;;4.30;;
44145;SDS011;29809;52.432;4.780;2022-11-15T08:58:03;6.53;;;4.22;;
44145;SDS011;29809;52.432;4.780;2022-11-15T09:00:28;5.40;;;3.70;;
44145;SDS011;29809;52.432;4.780;2022-11-15T09:02:54;5.47;;;4.22;;
44145;SDS011;29809;52.432;4.780;2022-11-15T09:05:19;7.40;;;3.92;;
44145;SDS011;29809;52.432;4.780;2022-11-15T09:07:44;5.78;;;3.63;;
44145;SDS011;29809;52.432;4.780;2022-11-15T09:10:10;5.60;;;3.90;;
44145;SDS011;29809;52.432;4.780;2022-11-15T09:12:35;6.45;;;4.00;;
44145;SDS011;29809;52.432;4.780;2022-11-15T09:15:00;5.07;;;4.03;;
44145;SDS011;29809;52.432;4.780;2022-11-15T09:17:25;5.00;;;3.50;;
44145;SDS011;29809;52.432;4.780;2022-11-15T09:19:50;5.65;;;3.60;;
44145;SDS011;29809;52.432;4.780;2022-11-15T09:22:16;6.47;;;3.40;;
44145;SDS011;29809;52.432;4.780;2022-11-15T09:24:41;3.63;;;3.33;;
44145;SDS011;29809;52.432;4.780;2022-11-15T09:27:07;3.92;;;2.90;;
44145;SDS011;29809;52.432;4.780;2022-11-15T09:29:32;5.10;;;3.55;;
44145;SDS011;29809;52.432;4.780;2022-11-15T09:31:57;4.38;;;3.70;;
44145;SDS011;29809;52.432;4.780;2022-11-15T09:34:22;4.63;;;2.75;;
44145;SDS011;29809;52.432;4.780;2022-11-15T09:36:48;4.88;;;3.53;;
44145;SDS011;29809;52.432;4.780;2022-11-15T09:39:13;6.43;;;3.40;;
44145;SDS011;29809;52.432;4.780;2022-11-15T09:41:54;4.13;;;3.70;;
44145;SDS011;29809;52.432;4.780;2022-11-15T09:49:22;3.75;;;3.38;;
44145;SDS011;29809;52.432;4.780;2022-11-15T09:51:48;3.05;;;2.75;;
44145;SDS011;29809;52.432;4.780;2022-11-15T09:57:05;3.83;;;3.42;;
44145;SDS011;29809;52.432;4.780;2022-11-15T09:59:46;3.92;;;3.30;;
44145;SDS011;29809;52.432;4.780;2022-11-15T10:04:43;3.03;;;2.65;;
44145;SDS011;29809;52.432;4.780;2022-11-15T10:07:22;2.90;;;2.63;;
44145;SDS011;29809;52.432;4.780;2022-11-15T10:12:22;4.63;;;3.30;;
44145;SDS011;29809;52.432;4.780;2022-11-15T10:14:48;3.25;;;2.78;;
44145;SDS011;29809;52.432;4.780;2022-11-15T10:22:14;4.65;;;2.95;;
44145;SDS011;29809;52.432;4.780;2022-11-15T10:24:42;3.55;;;2.78;;
44145;SDS011;29809;52.432;4.780;2022-11-15T10:27:18;3.20;;;2.72;;
44145;SDS011;29809;52.432;4.780;2022-11-15T10:29:44;2.88;;;2.38;;
44145;SDS011;29809;52.432;4.780;2022-11-15T10:32:11;2.97;;;2.67;;
44145;SDS011;29809;52.432;4.780;2022-11-15T10:34:36;3.35;;;2.50;;
44145;SDS011;29809;52.432;4.780;2022-11-15T10:37:02;3.63;;;2.45;;
44145;SDS011;29809;52.432;4.780;2022-11-15T10:39:27;4.22;;;2.60;;
44145;SDS011;29809;52.432;4.780;2022-11-15T10:41:53;3.53;;;2.35;;
44145;SDS011;29809;52.432;4.780;2022-11-15T10:44:25;3.33;;;2.45;;
44145;SDS011;29809;52.432;4.780;2022-11-15T10:49:20;3.63;;;2.40;;
44145;SDS011;29809;52.432;4.780;2022-11-15T10:51:49;4.20;;;2.60;;
44145;SDS011;29809;52.432;4.780;2022-11-15T10:54:19;3.25;;;2.58;;
44145;SDS011;29809;52.432;4.780;2022-11-15T10:56:48;2.88;;;2.10;;
44145;SDS011;29809;52.432;4.780;2022-11-15T10:59:15;3.03;;;2.53;;
44145;SDS011;29809;52.432;4.780;2022-11-15T11:01:47;4.55;;;2.75;;
44145;SDS011;29809;52.432;4.780;2022-11-15T11:04:12;2.72;;;1.85;;
44145;SDS011;29809;52.432;4.780;2022-11-15T11:06:48;3.50;;;2.40;;
44145;SDS011;29809;52.432;4.780;2022-11-15T11:11:58;2.78;;;2.00;;
44145;SDS011;29809;52.432;4.780;2022-11-15T11:14:24;2.70;;;2.28;;
44145;SDS011;29809;52.432;4.780;2022-11-15T11:34:50;2.28;;;1.90;;
44145;SDS011;29809;52.432;4.780;2022-11-15T11:37:35;4.63;;;2.25;;
44145;SDS011;29809;52.432;4.780;2022-11-15T11:40:18;3.00;;;1.73;;
44145;SDS011;29809;52.432;4.780;2022-11-15T11:50:31;2.10;;;1.73;;
44145;SDS011;29809;52.432;4.780;2022-11-15T11:53:21;2.65;;;1.77;;
44145;SDS011;29809;52.432;4.780;2022-11-15T11:55:50;4.03;;;1.70;;
44145;SDS011;29809;52.432;4.780;2022-11-15T11:58:36;1.77;;;1.40;;
44145;SDS011;29809;52.432;4.780;2022-11-15T12:06:42;2.00;;;1.50;;
44145;SDS011;29809;52.432;4.780;2022-11-15T12:14:51;1.58;;;1.23;;
44145;SDS011;29809;52.432;4.780;2022-11-15T12:17:25;3.00;;;2.05;;
44145;SDS011;29809;52.432;4.780;2022-11-15T12:19:51;2.38;;;1.48;;
44145;SDS011;29809;52.432;4.780;2022-11-15T12:22:52;6.60;;;1.92;;
44145;SDS011;29809;52.432;4.780;2022-11-15T12:25:17;1.88;;;1.40;;
44145;SDS011;29809;52.432;4.780;2022-11-15T12:27:57;2.88;;;1.33;;
44145;SDS011;29809;52.432;4.780;2022-11-15T12:30:25;1.52;;;1.27;;
44145;SDS011;29809;52.432;4.780;2022-11-15T12:32:52;1.23;;;1.13;;
44145;SDS011;29809;52.432;4.780;2022-11-15T12:35:26;2.47;;;1.38;;
44145;SDS011;29809;52.432;4.780;2022-11-15T12:37:55;1.48;;;1.38;;
44145;SDS011;29809;52.432;4.780;2022-11-15T12:45:34;1.52;;;1.15;;
44145;SDS011;29809;52.432;4.780;2022-11-15T12:56:02;2.92;;;1.23;;
44145;SDS011;29809;52.432;4.780;2022-11-15T12:58:46;3.30;;;1.70;;
44145;SDS011;29809;52.432;4.780;2022-11-15T13:04:21;1.83;;;0.95;;
44145;SDS011;29809;52.432;4.780;2022-11-15T13:09:57;1.65;;;1.08;;
44145;SDS011;29809;52.432;4.780;2022-11-15T13:12:10;2.50;;;1.13;;
44145;SDS011;29809;52.432;4.780;2022-11-15T13:17:31;1.00;;;0.90;;
44145;SDS011;29809;52.432;4.780;2022-11-15T13:27:57;0.98;;;0.90;;
44145;SDS011;29809;52.432;4.780;2022-11-15T13:30:26;1.88;;;1.02;;
44145;SDS011;29809;52.432;4.780;2022-11-15T13:32:51;1.77;;;0.80;;
44145;SDS011;29809;52.432;4.780;2022-11-15T13:35:24;0.80;;;0.80;;
44145;SDS011;29809;52.432;4.780;2022-11-15T13:37:50;1.63;;;1.10;;
44145;SDS011;29809;52.432;4.780;2022-11-15T13:40:24;2.03;;;1.10;;
44145;SDS011;29809;52.432;4.780;2022-11-15T13:42:52;1.05;;;0.70;;
44145;SDS011;29809;52.432;4.780;2022-11-15T13:45:17;2.05;;;0.82;;
44145;SDS011;29809;52.432;4.780;2022-11-15T13:47:43;1.77;;;0.82;;
44145;SDS011;29809;52.432;4.780;2022-11-15T13:50:12;2.05;;;0.82;;
44145;SDS011;29809;52.432;4.780;2022-11-15T13:52:37;2.53;;;0.95;;
44145;SDS011;29809;52.432;4.780;2022-11-15T13:55:18;1.55;;;0.80;;
44145;SDS011;29809;52.432;4.780;2022-11-15T13:57:45;2.97;;;0.80;;
44145;SDS011;29809;52.432;4.780;2022-11-15T14:02:51;1.10;;;0.90;;
44145;SDS011;29809;52.432;4.780;2022-11-15T14:05:19;1.77;;;1.00;;
44145;SDS011;29809;52.432;4.780;2022-11-15T14:07:55;1.92;;;0.70;;
44145;SDS011;29809;52.432;4.780;2022-11-15T14:10:39;1.42;;;0.68;;
44145;SDS011;29809;52.432;4.780;2022-11-15T14:13:10;0.88;;;0.70;;
44145;SDS011;29809;52.432;4.780;2022-11-15T14:15:37;1.33;;;0.80;;
44145;SDS011;29809;52.432;4.780;2022-11-15T14:18:03;1.90;;;0.82;;
44145;SDS011;29809;52.432;4.780;2022-11-15T14:20:33;6.53;;;1.38;;
44145;SDS011;29809;52.432;4.780;2022-11-15T14:23:02;2.40;;;0.65;;
44145;SDS011;29809;52.432;4.780;2022-11-15T14:25:29;4.03;;;1.00;;
44145;SDS011;29809;52.432;4.780;2022-11-15T14:30:39;1.23;;;0.68;;
44145;SDS011;29809;52.432;4.780;2022-11-15T14:33:18;1.50;;;1.00;;
44145;SDS011;29809;52.432;4.780;2022-11-15T14:35:44;1.35;;;0.80;;
44145;SDS011;29809;52.432;4.780;2022-11-15T14:38:09;4.55;;;0.90;;
44145;SDS011;29809;52.432;4.780;2022-11-15T14:40:34;2.10;;;0.88;;
44145;SDS011;29809;52.432;4.780;2022-11-15T14:43:00;1.75;;;0.80;;
44145;SDS011;29809;52.432;4.780;2022-11-15T14:45:26;1.65;;;0.88;;
44145;SDS011;29809;52.432;4.780;2022-11-15T14:47:52;0.98;;;0.90;;
44145;SDS011;29809;52.432;4.780;2022-11-15T14:50:18;1.75;;;1.10;;
44145;SDS011;29809;52.432;4.780;2022-11-15T14:52:43;1.67;;;0.82;;
44145;SDS011;29809;52.432;4.780;2022-11-15T14:55:20;1.88;;;0.82;;
44145;SDS011;29809;52.432;4.780;2022-11-15T14:57:46;1.75;;;1.10;;
44145;SDS011;29809;52.432;4.780;2022-11-15T15:00:11;1.40;;;0.80;;
44145;SDS011;29809;52.432;4.780;2022-11-15T15:02:37;0.82;;;0.77;;
44145;SDS011;29809;52.432;4.780;2022-11-15T15:05:10;1.83;;;0.80;;
44145;SDS011;29809;52.432;4.780;2022-11-15T15:07:37;1.75;;;1.10;;
44145;SDS011;29809;52.432;4.780;2022-11-15T15:10:02;0.88;;;0.63;;
44145;SDS011;29809;52.432;4.780;2022-11-15T15:12:27;1.40;;;0.88;;
44145;SDS011;29809;52.432;4.780;2022-11-15T15:14:54;1.85;;;0.95;;
44145;SDS011;29809;52.432;4.780;2022-11-15T15:17:19;2.67;;;1.20;;
44145;SDS011;29809;52.432;4.780;2022-11-15T15:19:44;1.73;;;0.65;;
44145;SDS011;29809;52.432;4.780;2022-11-15T15:22:14;1.33;;;0.93;;
44145;SDS011;29809;52.432;4.780;2022-11-15T15:24:39;1.50;;;0.68;;
44145;SDS011;29809;52.432;4.780;2022-11-15T15:27:04;2.45;;;1.10;;
44145;SDS011;29809;52.432;4.780;2022-11-15T15:29:30;1.58;;;0.70;;
44145;SDS011;29809;52.432;4.780;2022-11-15T15:31:55;1.23;;;0.65;;
44145;SDS011;29809;52.432;4.780;2022-11-15T15:34:20;3.45;;;0.82;;
44145;SDS011;29809;52.432;4.780;2022-11-15T15:36:45;6.80;;;1.30;;
44145;SDS011;29809;52.432;4.780;2022-11-15T15:39:11;6.97;;;1.80;;
44145;SDS011;29809;52.432;4.780;2022-11-15T15:41:37;2.78;;;1.30;;
44145;SDS011;29809;52.432;4.780;2022-11-15T15:44:02;2.65;;;0.90;;
44145;SDS011;29809;52.432;4.780;2022-11-15T15:46:27;1.35;;;0.98;;
44145;SDS011;29809;52.432;4.780;2022-11-15T15:48:52;3.50;;;0.93;;
44145;SDS011;29809;52.432;4.780;2022-11-15T15:51:18;1.15;;;1.00;;
44145;SDS011;29809;52.432;4.780;2022-11-15T15:53:43;2.97;;;0.90;;
44145;SDS011;29809;52.432;4.780;2022-11-15T15:56:08;1.85;;;1.10;;
44145;SDS011;29809;52.432;4.780;2022-11-15T15:58:34;1.73;;;0.90;;
44145;SDS011;29809;52.432;4.780;2022-11-15T16:00:59;1.70;;;0.90;;
44145;SDS011;29809;52.432;4.780;2022-11-15T16:03:25;5.53;;;1.45;;
44145;SDS011;29809;52.432;4.780;2022-11-15T16:05:50;1.95;;;1.15;;
44145;SDS011;29809;52.432;4.780;2022-11-15T16:08:19;2.28;;;1.40;;
44145;SDS011;29809;52.432;4.780;2022-11-15T16:10:45;1.80;;;1.02;;
44145;SDS011;29809;52.432;4.780;2022-11-15T16:13:10;1.23;;;1.00;;
44145;SDS011;29809;52.432;4.780;2022-11-15T16:15:35;3.38;;;1.17;;
44145;SDS011;29809;52.432;4.780;2022-11-15T16:18:01;1.92;;;1.02;;
44145;SDS011;29809;52.432;4.780;2022-11-15T16:20:31;1.20;;;1.00;;
44145;SDS011;29809;52.432;4.780;2022-11-15T16:22:56;1.80;;;0.90;;
44145;SDS011;29809;52.432;4.780;2022-11-15T16:25:22;2.83;;;0.90;;
44145;SDS011;29809;52.432;4.780;2022-11-15T16:27:47;1.58;;;1.00;;
44145;SDS011;29809;52.432;4.780;2022-11-15T16:30:16;4.80;;;1.02;;
44145;SDS011;29809;52.432;4.780;2022-11-15T16:32:42;2.80;;;1.10;;
44145;SDS011;29809;52.432;4.780;2022-11-15T16:35:11;1.88;;;1.00;;
44145;SDS011;29809;52.432;4.780;2022-11-15T16:37:37;4.10;;;1.30;;
44145;SDS011;29809;52.432;4.780;2022-11-15T16:40:05;4.55;;;1.83;;
44145;SDS011;29809;52.432;4.780;2022-11-15T16:42:30;7.50;;;1.27;;
44145;SDS011;29809;52.432;4.780;2022-11-15T16:44:55;2.22;;;1.10;;
44145;SDS011;29809;52.432;4.780;2022-11-15T16:47:20;2.45;;;1.00;;